Time;durP1;ratioP1;P1;durP2;ratioP2;P2;SDS_P1;SDS_P2;PMS_P1;PMS_P2;Temp;Humidity;BMP_temperature;BMP_pressure;BME280_temperature;BME280_humidity;BME280_pressure;Samples;Min_cycle;Max_cycle;Signal;HPM_P1;HPM_P2
2021/08/28 00:02:28;;;;;;;6.00;4.90;;;;;;;10.30;96.74;96451.05;113931;1203;26533;-82
2021/08/28 00:04:59;;;;;;;8.10;5.00;;;;;;;10.26;96.70;96447.94;113918;1205;26335;-83
2021/08/28 00:07:30;;;;;;;7.60;5.70;;;;;;;10.23;96.55;96445.86;114042;1203;29012;-82
2021/08/28 00:10:00;;;;;;;8.00;5.80;;;;;;;10.21;96.60;96449.94;114011;1203;27890;-82
2021/08/28 00:12:32;;;;;;;9.10;5.40;;;;;;;10.19;96.61;96453.97;113958;1202;27652;-82
2021/08/28 00:15:04;;;;;;;7.30;4.70;;;;;;;10.18;96.54;96461.73;113884;1205;28164;-82
2021/08/28 00:17:35;;;;;;;9.40;5.20;;;;;;;10.12;96.44;96457.15;113927;1205;26130;-82
2021/08/28 00:20:08;;;;;;;5.10;3.90;;;;;;;10.07;96.41;96455.71;113995;1209;24764;-82
2021/08/28 00:22:39;;;;;;;6.90;4.80;;;;;;;10.03;96.49;96455.34;114036;1203;25695;-82
2021/08/28 00:25:12;;;;;;;6.90;4.60;;;;;;;10.04;96.73;96457.60;113953;1202;69840;-82
2021/08/28 00:27:44;;;;;;;8.10;5.20;;;;;;;10.07;96.82;96457.42;114119;1203;24849;-81
2021/08/28 00:30:16;;;;;;;8.30;4.60;;;;;;;10.09;96.84;96456.81;114046;1204;25120;-82
2021/08/28 00:32:46;;;;;;;7.60;5.30;;;;;;;10.08;96.71;96459.73;114021;1203;26987;-82
2021/08/28 00:35:17;;;;;;;7.10;5.10;;;;;;;10.08;96.64;96462.43;114043;1203;28520;-81
2021/08/28 00:37:48;;;;;;;6.50;4.60;;;;;;;10.05;96.51;96460.61;113949;1203;28206;-81
2021/08/28 00:40:19;;;;;;;5.80;4.40;;;;;;;10.03;96.52;96461.95;113927;1205;69999;-81
2021/08/28 00:42:51;;;;;;;7.00;4.50;;;;;;;10.03;96.50;96460.11;114028;1203;26436;-80
2021/08/28 00:45:24;;;;;;;6.90;4.80;;;;;;;10.03;96.55;96463.23;114059;1203;29721;-82
2021/08/28 00:47:58;;;;;;;6.60;4.90;;;;;;;10.04;96.44;96463.65;114055;1198;27589;-82
2021/08/28 00:50:29;;;;;;;6.30;4.40;;;;;;;10.01;96.38;96462.04;114007;1203;34624;-81
2021/08/28 00:53:01;;;;;;;8.70;5.00;;;;;;;10.00;96.43;96467.81;114088;1202;27691;-82
2021/08/28 00:55:33;;;;;;;7.30;5.00;;;;;;;9.98;96.54;96466.54;114062;1203;27203;-81
2021/08/28 00:58:05;;;;;;;9.80;5.50;;;;;;;9.97;96.55;96471.69;113962;1203;64583;-82
2021/08/28 01:00:41;;;;;;;7.10;5.40;;;;;;;9.97;96.73;96472.27;113999;1203;29776;-82
2021/08/28 01:03:15;;;;;;;10.60;5.50;;;;;;;9.97;96.91;96467.34;114079;1202;26403;-84
2021/08/28 01:05:53;;;;;;;9.00;5.70;;;;;;;9.96;97.16;96466.83;114102;1203;27383;-82
2021/08/28 01:08:33;;;;;;;9.40;5.40;;;;;;;9.92;97.15;96468.61;114001;1202;30741;-81
2021/08/28 01:11:13;;;;;;;7.50;4.80;;;;;;;9.89;96.93;96470.48;114013;1203;26234;-82
2021/08/28 01:13:49;;;;;;;6.70;4.70;;;;;;;9.90;96.82;96470.38;114021;1206;28075;-81
2021/08/28 01:16:21;;;;;;;5.90;4.40;;;;;;;9.89;96.63;96475.41;114048;1203;27089;-82
2021/08/28 01:18:56;;;;;;;5.60;4.30;;;;;;;9.90;96.47;96475.05;113963;1203;27371;-82
2021/08/28 01:21:31;;;;;;;5.10;3.90;;;;;;;9.88;96.43;96472.98;114066;1202;29257;-82
2021/08/28 01:24:05;;;;;;;5.50;3.70;;;;;;;9.84;96.28;96476.72;114061;1202;27079;-82
2021/08/28 01:26:43;;;;;;;5.60;4.00;;;;;;;9.79;96.26;96477.59;114032;1202;28609;-82
2021/08/28 01:29:20;;;;;;;5.90;4.20;;;;;;;9.75;96.20;96477.69;114028;1203;36581;-82
2021/08/28 01:31:53;;;;;;;5.30;3.90;;;;;;;9.71;96.02;96479.77;114029;1203;25802;-82
2021/08/28 01:34:25;;;;;;;6.00;4.30;;;;;;;9.66;96.07;96479.74;114069;1203;28305;-82
2021/08/28 01:36:57;;;;;;;6.00;4.00;;;;;;;9.61;96.34;96478.58;114063;1203;32375;-82
2021/08/28 01:39:28;;;;;;;5.40;4.00;;;;;;;9.57;96.59;96479.50;114002;1203;29070;-82
2021/08/28 01:42:04;;;;;;;6.00;4.30;;;;;;;9.55;96.72;96484.10;113982;1209;32095;-82
2021/08/28 01:44:37;;;;;;;5.30;3.80;;;;;;;9.53;96.79;96493.02;114045;1206;29975;-82
2021/08/28 01:47:10;;;;;;;5.50;4.10;;;;;;;9.53;96.80;96490.84;114121;1203;25172;-82
2021/08/28 01:49:41;;;;;;;5.60;3.70;;;;;;;9.52;96.57;96489.73;114002;1205;28003;-82
2021/08/28 01:52:13;;;;;;;5.60;3.60;;;;;;;9.52;96.72;96483.45;114046;1204;26918;-82
2021/08/28 01:54:45;;;;;;;6.00;4.10;;;;;;;9.52;96.79;96484.28;114077;1209;28947;-82
2021/08/28 01:57:16;;;;;;;5.60;3.90;;;;;;;9.52;96.83;96484.81;114049;1203;26161;-82
2021/08/28 01:59:47;;;;;;;6.00;3.80;;;;;;;9.51;96.71;96480.96;114092;1202;30146;-82
2021/08/28 02:02:18;;;;;;;5.60;3.90;;;;;;;9.47;96.88;96481.31;114097;1204;26028;-82
2021/08/28 02:04:49;;;;;;;6.70;4.40;;;;;;;9.41;96.98;96479.27;113928;1210;28689;-81
2021/08/28 02:07:27;;;;;;;5.20;3.80;;;;;;;9.38;97.08;96483.89;113973;1203;26490;-81
2021/08/28 02:10:03;;;;;;;4.50;3.30;;;;;;;9.36;96.99;96483.48;113904;1205;26230;-82
2021/08/28 02:12:38;;;;;;;5.10;3.40;;;;;;;9.33;96.94;96479.86;114053;1209;28532;-82
2021/08/28 02:15:12;;;;;;;5.10;3.40;;;;;;;9.31;96.81;96474.16;113998;1205;33258;-82
2021/08/28 02:18:00;;;;;;;4.70;3.60;;;;;;;9.33;96.96;96466.68;113986;1203;25425;-82
2021/08/28 02:20:35;;;;;;;4.20;3.20;;;;;;;9.42;97.00;96467.58;113860;1203;67358;-83
2021/08/28 02:23:09;;;;;;;4.10;3.20;;;;;;;9.45;96.69;96470.27;114088;1203;25647;-82
2021/08/28 02:25:54;;;;;;;3.80;3.10;;;;;;;9.42;96.48;96472.27;113985;1203;26235;-82
2021/08/28 02:28:33;;;;;;;3.80;3.00;;;;;;;9.43;96.49;96474.08;114026;1203;26883;-82
2021/08/28 02:31:06;;;;;;;6.00;3.50;;;;;;;9.45;96.47;96477.78;113858;1203;30240;-81
2021/08/28 02:33:38;;;;;;;4.50;3.30;;;;;;;9.48;96.44;96477.61;114036;1203;31339;-81
2021/08/28 02:36:12;;;;;;;5.40;3.80;;;;;;;9.52;96.45;96472.80;113960;1204;25976;-81
2021/08/28 02:38:45;;;;;;;3.90;3.40;;;;;;;9.57;96.35;96475.33;113954;1210;46554;-82
2021/08/28 02:41:18;;;;;;;5.00;3.40;;;;;;;9.60;96.20;96475.63;114123;1204;27617;-82
2021/08/28 02:43:50;;;;;;;4.10;3.30;;;;;;;9.59;95.94;96480.08;114036;1203;29865;-83
2021/08/28 02:46:25;;;;;;;5.00;3.70;;;;;;;9.55;95.72;96480.55;114070;1202;26770;-82
2021/08/28 02:48:57;;;;;;;4.40;3.40;;;;;;;9.51;95.60;96475.13;114003;1204;26195;-82
2021/08/28 02:51:30;;;;;;;4.20;3.20;;;;;;;9.48;95.56;96477.06;114040;1203;24557;-83
2021/08/28 02:54:03;;;;;;;5.10;3.30;;;;;;;9.48;95.72;96479.88;114066;1203;27763;-82
2021/08/28 02:56:36;;;;;;;4.40;3.50;;;;;;;9.50;95.69;96484.19;113960;1205;25778;-82
2021/08/28 02:59:07;;;;;;;4.00;3.10;;;;;;;9.50;95.62;96483.51;113916;1203;30503;-82
2021/08/28 03:01:39;;;;;;;3.70;2.80;;;;;;;9.49;95.53;96482.56;113924;1207;25908;-82
2021/08/28 03:04:11;;;;;;;3.70;2.80;;;;;;;9.49;95.45;96485.11;114040;1204;26508;-82
2021/08/28 03:06:42;;;;;;;6.10;3.60;;;;;;;9.48;95.35;96483.10;113955;1203;31459;-82
2021/08/28 03:09:13;;;;;;;3.50;2.90;;;;;;;9.52;95.27;96481.48;113964;1203;26877;-82
2021/08/28 03:11:45;;;;;;;3.90;3.30;;;;;;;9.52;95.11;96482.86;114105;1203;31471;-82
2021/08/28 03:14:17;;;;;;;4.70;3.30;;;;;;;9.46;94.83;96485.23;114011;1203;25993;-82
2021/08/28 03:16:53;;;;;;;4.40;3.30;;;;;;;9.42;94.69;96487.31;113993;1209;30394;-81
2021/08/28 03:19:27;;;;;;;4.20;3.10;;;;;;;9.39;94.60;96488.59;113969;1209;31255;-81
2021/08/28 03:22:02;;;;;;;3.80;2.90;;;;;;;9.33;94.51;96489.48;113942;1203;31181;-81
2021/08/28 03:24:34;;;;;;;4.10;2.90;;;;;;;9.31;94.46;96485.95;114025;1203;26980;-83
2021/08/28 03:27:06;;;;;;;4.60;3.20;;;;;;;9.29;94.47;96491.56;113997;1208;27924;-83
2021/08/28 03:29:38;;;;;;;4.90;3.10;;;;;;;9.28;94.44;96485.00;114008;1203;31073;-81
2021/08/28 03:32:10;;;;;;;4.80;3.30;;;;;;;9.25;94.30;96487.29;113855;1205;32318;-82
2021/08/28 03:34:41;;;;;;;3.90;3.10;;;;;;;9.21;94.22;96483.66;113970;1203;25329;-82
2021/08/28 03:37:13;;;;;;;4.40;3.30;;;;;;;9.21;94.39;96480.55;113950;1203;30506;-82
2021/08/28 03:39:45;;;;;;;3.90;2.70;;;;;;;9.26;94.56;96482.41;113912;1203;30886;-82
2021/08/28 03:42:16;;;;;;;4.50;2.80;;;;;;;9.29;94.64;96474.27;113970;1203;31128;-82
2021/08/28 03:44:47;;;;;;;3.90;2.90;;;;;;;9.33;94.70;96476.20;114004;1203;28438;-82
2021/08/28 03:47:18;;;;;;;3.20;2.40;;;;;;;9.34;94.58;96473.92;114064;1203;24479;-83
2021/08/28 03:49:49;;;;;;;3.40;2.90;;;;;;;9.34;94.53;96481.23;113915;1204;27554;-81
2021/08/28 03:52:20;;;;;;;4.70;2.90;;;;;;;9.31;94.30;96484.20;114019;1203;29740;-82
2021/08/28 03:54:51;;;;;;;3.40;2.80;;;;;;;9.29;94.30;96480.98;113996;1210;30069;-82
2021/08/28 03:57:22;;;;;;;4.50;3.10;;;;;;;9.27;94.22;96484.89;113930;1200;32048;-79
2021/08/28 03:59:53;;;;;;;4.90;2.90;;;;;;;9.26;94.17;96480.77;113985;1203;28968;-81
2021/08/28 04:02:25;;;;;;;3.20;2.80;;;;;;;9.28;94.20;96480.30;113937;1203;27110;-82
2021/08/28 04:04:55;;;;;;;3.00;2.50;;;;;;;9.31;94.23;96475.48;113756;1205;31972;-82
2021/08/28 04:07:26;;;;;;;3.50;3.00;;;;;;;9.33;94.21;96483.08;113899;1203;31285;-82
2021/08/28 04:09:57;;;;;;;7.90;3.00;;;;;;;9.34;94.09;96483.23;114071;1203;25359;-82
2021/08/28 04:12:28;;;;;;;3.30;2.50;;;;;;;9.39;93.93;96484.84;113993;1204;28053;-82
2021/08/28 04:14:59;;;;;;;4.90;3.00;;;;;;;9.47;93.77;96489.73;113960;1206;37229;-82
2021/08/28 04:17:30;;;;;;;4.70;2.80;;;;;;;9.60;93.45;96487.16;114011;1204;26392;-82
2021/08/28 04:20:01;;;;;;;3.00;2.60;;;;;;;9.95;93.43;96490.52;114034;1203;28523;-83
2021/08/28 04:22:32;;;;;;;2.80;2.40;;;;;;;10.80;93.33;96498.98;114032;1209;26716;-82
2021/08/28 04:25:04;;;;;;;2.90;2.30;;;;;;;11.67;91.81;96493.45;113950;1203;34372;-82
2021/08/28 04:27:35;;;;;;;4.10;2.70;;;;;;;12.39;89.36;96492.81;113986;1209;29403;-83
2021/08/28 04:30:07;;;;;;;3.10;2.20;;;;;;;13.02;87.78;96497.14;113928;1203;29895;-83
2021/08/28 04:32:38;;;;;;;2.60;1.90;;;;;;;13.46;84.30;96491.64;114045;1204;28425;-82
2021/08/28 04:35:10;;;;;;;3.00;2.10;;;;;;;13.63;82.62;96493.73;114046;1203;28894;-83
2021/08/28 04:37:41;;;;;;;2.30;2.10;;;;;;;13.98;81.65;96488.73;113979;1205;28477;-82
2021/08/28 04:40:14;;;;;;;5.30;2.00;;;;;;;14.39;80.50;96495.44;113987;1203;27013;-83
2021/08/28 04:42:46;;;;;;;2.50;2.30;;;;;;;14.85;80.22;96496.13;113971;1210;27446;-82
2021/08/28 04:45:17;;;;;;;3.50;2.00;;;;;;;15.57;79.60;96493.33;113986;1203;30941;-83
2021/08/28 04:47:48;;;;;;;2.00;1.80;;;;;;;16.21;77.87;96492.46;113991;1203;27583;-83
2021/08/28 04:50:18;;;;;;;2.00;1.90;;;;;;;16.55;74.64;96491.39;113958;1203;30758;-81
2021/08/28 04:52:49;;;;;;;1.40;1.30;;;;;;;16.73;73.79;96498.16;113924;1200;36490;-82
2021/08/28 04:55:21;;;;;;;2.20;1.90;;;;;;;17.05;72.30;96499.64;113985;1204;33998;-82
2021/08/28 04:57:52;;;;;;;1.90;1.60;;;;;;;17.45;71.93;96502.94;114002;1209;27408;-82
2021/08/28 05:00:23;;;;;;;2.20;1.70;;;;;;;18.08;70.49;96502.62;113962;1207;32715;-82
2021/08/28 05:02:53;;;;;;;1.60;1.50;;;;;;;18.49;68.63;96505.45;113958;1203;31022;-82
2021/08/28 05:05:24;;;;;;;1.60;1.50;;;;;;;18.67;66.39;96504.36;113933;1210;27080;-83
2021/08/28 05:07:55;;;;;;;1.90;1.40;;;;;;;19.12;66.43;96506.17;113920;1203;30518;-83
2021/08/28 05:10:27;;;;;;;2.10;1.70;;;;;;;19.64;66.28;96512.04;114065;1202;26246;-82
2021/08/28 05:12:58;;;;;;;1.80;1.60;;;;;;;20.02;64.13;96503.63;114012;1208;26662;-82
2021/08/28 05:15:29;;;;;;;2.00;1.40;;;;;;;20.36;61.46;96503.16;113956;1205;29447;-83
2021/08/28 05:18:00;;;;;;;2.80;1.30;;;;;;;20.47;59.69;96498.44;113994;1206;27864;-83
2021/08/28 05:20:31;;;;;;;2.10;1.70;;;;;;;20.55;58.67;96498.02;114039;1209;28680;-82
2021/08/28 05:23:02;;;;;;;1.90;1.60;;;;;;;20.80;57.94;96491.14;113975;1210;26344;-83
2021/08/28 05:25:33;;;;;;;2.50;1.70;;;;;;;21.01;56.32;96496.34;113955;1203;29978;-83
2021/08/28 05:28:04;;;;;;;1.80;1.70;;;;;;;21.21;56.32;96492.89;113999;1205;27748;-83
2021/08/28 05:30:35;;;;;;;2.00;1.70;;;;;;;21.66;55.48;96493.16;113952;1205;27087;-82
2021/08/28 05:33:06;;;;;;;2.60;1.70;;;;;;;21.91;53.63;96496.02;113944;1207;74069;-83
2021/08/28 05:35:37;;;;;;;1.80;1.70;;;;;;;22.01;52.99;96494.22;114031;1203;30511;-83
2021/08/28 05:38:08;;;;;;;2.30;2.00;;;;;;;22.03;51.73;96490.95;114004;1206;43717;-83
2021/08/28 05:40:39;;;;;;;2.30;1.70;;;;;;;22.11;51.56;96492.29;114015;1210;28624;-83
2021/08/28 05:43:10;;;;;;;2.30;1.70;;;;;;;22.38;52.20;96496.27;113989;1203;28489;-83
2021/08/28 05:45:41;;;;;;;2.00;1.60;;;;;;;22.94;50.57;96494.70;114068;1206;26399;-82
2021/08/28 05:48:12;;;;;;;2.10;1.60;;;;;;;23.30;51.05;96491.87;113959;1204;29201;-85
2021/08/28 05:50:43;;;;;;;2.20;1.80;;;;;;;23.41;48.84;96494.52;113981;1203;24177;-84
2021/08/28 05:53:14;;;;;;;1.90;1.70;;;;;;;23.39;48.70;96495.40;113978;1205;25525;-82
2021/08/28 05:55:44;;;;;;;4.70;2.00;;;;;;;24.04;49.23;96498.95;114097;1203;25716;-83
2021/08/28 05:58:15;;;;;;;2.20;1.80;;;;;;;24.60;49.58;96500.31;113998;1206;27559;-83
2021/08/28 06:00:46;;;;;;;1.50;1.30;;;;;;;25.50;48.22;96498.25;114010;1205;27940;-83
2021/08/28 06:03:18;;;;;;;1.90;1.70;;;;;;;26.01;47.55;96506.71;114038;1209;26666;-83
2021/08/28 06:05:49;;;;;;;1.70;1.40;;;;;;;26.60;47.75;96509.44;114002;1205;26440;-83
2021/08/28 06:08:20;;;;;;;1.50;1.40;;;;;;;27.50;47.68;96501.05;114010;1206;25895;-83
2021/08/28 06:10:51;;;;;;;1.40;1.20;;;;;;;28.39;47.02;96500.44;114034;1206;27697;-83
2021/08/28 06:13:22;;;;;;;2.30;1.40;;;;;;;29.37;45.90;96504.04;113946;1206;25923;-82
2021/08/28 06:15:53;;;;;;;1.30;1.20;;;;;;;29.48;43.92;96502.71;113919;1203;67008;-83
2021/08/28 06:18:24;;;;;;;1.40;1.30;;;;;;;29.80;43.22;96501.70;113943;1207;29344;-83
2021/08/28 06:20:57;;;;;;;2.30;1.20;;;;;;;29.96;41.97;96499.89;114007;1203;27242;-83
2021/08/28 06:23:28;;;;;;;1.90;1.30;;;;;;;29.84;41.04;96502.52;114033;1203;27470;-83
2021/08/28 06:25:59;;;;;;;1.60;1.10;;;;;;;30.48;42.18;96499.12;113995;1204;28397;-83
2021/08/28 06:28:30;;;;;;;1.50;1.20;;;;;;;31.24;40.33;96499.77;114003;1203;32639;-83
2021/08/28 06:31:01;;;;;;;1.90;1.50;;;;;;;30.97;38.18;96505.02;114004;1205;33417;-83
2021/08/28 06:33:32;;;;;;;1.40;1.30;;;;;;;30.35;37.63;96505.15;113969;1203;39271;-84
2021/08/28 06:36:04;;;;;;;2.00;1.50;;;;;;;29.87;37.56;96504.29;113932;1210;30575;-83
2021/08/28 06:38:35;;;;;;;2.20;1.50;;;;;;;30.06;38.38;96503.15;113909;1209;31578;-83
2021/08/28 06:41:05;;;;;;;1.80;1.30;;;;;;;30.18;36.70;96501.92;114004;1205;28046;-83
2021/08/28 06:43:36;;;;;;;1.40;1.30;;;;;;;29.65;35.51;96501.61;114014;1203;31439;-83
2021/08/28 06:46:07;;;;;;;1.20;1.10;;;;;;;29.19;36.57;96505.27;113984;1205;32352;-84
2021/08/28 06:48:38;;;;;;;1.20;1.00;;;;;;;29.55;37.35;96507.55;114048;1206;31279;-83
2021/08/28 06:51:09;;;;;;;2.10;1.40;;;;;;;30.20;36.80;96507.14;113962;1206;36226;-83
2021/08/28 06:53:40;;;;;;;1.00;1.00;;;;;;;30.48;36.32;96504.92;113928;1206;78336;-84
2021/08/28 06:56:11;;;;;;;2.10;1.30;;;;;;;30.30;34.48;96503.58;113989;1205;35881;-83
2021/08/28 06:58:42;;;;;;;1.50;1.40;;;;;;;30.20;35.06;96507.22;114000;1206;27154;-83
2021/08/28 07:01:13;;;;;;;1.40;1.30;;;;;;;30.03;35.10;96503.42;113990;1205;28900;-84
2021/08/28 07:03:44;;;;;;;2.10;1.40;;;;;;;30.26;35.27;96502.36;114064;1202;28834;-83
2021/08/28 07:06:15;;;;;;;1.30;1.20;;;;;;;30.46;35.28;96502.83;114055;1205;29384;-83
2021/08/28 07:08:46;;;;;;;1.30;1.20;;;;;;;31.13;35.31;96501.66;114060;1202;26508;-84
2021/08/28 07:11:17;;;;;;;1.40;1.10;;;;;;;31.54;34.86;96501.22;114055;1205;29442;-83
2021/08/28 07:13:48;;;;;;;1.50;1.20;;;;;;;31.87;34.42;96497.67;114081;1206;28221;-83
2021/08/28 07:16:19;;;;;;;1.50;1.40;;;;;;;32.33;34.30;96499.61;113974;1208;41199;-81
2021/08/28 07:18:50;;;;;;;1.40;1.30;;;;;;;32.71;32.98;96502.02;113954;1205;31276;-83
2021/08/28 07:21:22;;;;;;;1.40;1.10;;;;;;;32.49;32.97;96491.67;113964;1203;48394;-82
2021/08/28 07:23:53;;;;;;;1.50;1.20;;;;;;;33.25;33.33;96490.42;114009;1209;28004;-83
2021/08/28 07:26:24;;;;;;;1.50;1.00;;;;;;;33.85;32.45;96491.98;114002;1206;29546;-82
2021/08/28 07:28:55;;;;;;;1.80;1.10;;;;;;;33.97;31.24;96489.33;113979;1210;28146;-83
2021/08/28 07:31:26;;;;;;;1.00;0.90;;;;;;;33.59;31.76;96486.63;113989;1202;29565;-83
2021/08/28 07:33:57;;;;;;;1.30;1.20;;;;;;;34.03;31.76;96488.05;114020;1202;25995;-83
2021/08/28 07:36:28;;;;;;;1.30;1.10;;;;;;;34.44;31.07;96489.50;113986;1209;25630;-83
2021/08/28 07:39:00;;;;;;;1.00;0.90;;;;;;;34.16;30.96;96487.21;114008;1208;27335;-83
2021/08/28 07:41:31;;;;;;;1.10;1.00;;;;;;;34.12;31.45;96496.92;113993;1209;28051;-84
2021/08/28 07:44:02;;;;;;;1.50;1.20;;;;;;;34.63;30.61;96497.74;113974;1206;26949;-83
2021/08/28 07:46:33;;;;;;;1.50;1.10;;;;;;;34.13;29.26;96495.52;113978;1203;27942;-84
2021/08/28 07:49:05;;;;;;;1.30;1.10;;;;;;;32.43;29.14;96495.23;113994;1203;51189;-83
2021/08/28 07:51:36;;;;;;;1.20;1.00;;;;;;;31.49;30.26;96498.34;113980;1206;25926;-83
2021/08/28 07:54:07;;;;;;;1.30;1.10;;;;;;;31.15;31.51;96497.41;114002;1209;27383;-83
2021/08/28 07:56:38;;;;;;;2.80;1.20;;;;;;;31.50;31.76;96499.27;113987;1202;30954;-83
2021/08/28 07:59:09;;;;;;;1.30;1.10;;;;;;;31.94;31.54;96493.23;114011;1205;25123;-83
2021/08/28 08:01:40;;;;;;;1.30;0.90;;;;;;;32.40;31.66;96496.19;113952;1209;26701;-83
2021/08/28 08:04:10;;;;;;;1.70;0.90;;;;;;;32.57;31.30;96497.64;113963;1205;25296;-83
2021/08/28 08:06:41;;;;;;;1.70;0.80;;;;;;;33.30;31.68;96500.98;114008;1205;29029;-83
2021/08/28 08:09:14;;;;;;;0.70;0.70;;;;;;;33.91;30.64;96504.17;113999;1203;29182;-83
2021/08/28 08:11:45;;;;;;;2.00;0.90;;;;;;;33.78;30.69;96507.44;114059;1209;28421;-83
2021/08/28 08:14:16;;;;;;;1.00;0.90;;;;;;;33.42;29.84;96506.59;114039;1208;44896;-83
2021/08/28 08:16:48;;;;;;;1.00;0.90;;;;;;;32.54;30.45;96501.46;114039;1209;29853;-83
2021/08/28 08:19:19;;;;;;;1.90;1.00;;;;;;;31.84;31.20;96503.83;114054;1200;26038;-83
2021/08/28 08:21:50;;;;;;;1.90;0.90;;;;;;;31.49;31.94;96499.13;113947;1204;26348;-82
2021/08/28 08:24:21;;;;;;;2.40;1.00;;;;;;;30.69;31.91;96496.34;113972;1208;28956;-81
2021/08/28 08:26:52;;;;;;;0.80;0.70;;;;;;;29.51;33.00;96500.26;114030;1206;31955;-82
2021/08/28 08:29:23;;;;;;;1.00;0.70;;;;;;;28.66;32.26;96498.75;114019;1209;27556;-83
2021/08/28 08:31:54;;;;;;;1.30;1.10;;;;;;;27.61;33.00;96494.98;113960;1205;30727;-84
2021/08/28 08:34:25;;;;;;;2.10;0.60;;;;;;;26.68;34.31;96496.02;113965;1209;34032;-82
2021/08/28 08:36:56;;;;;;;0.70;0.60;;;;;;;26.45;34.72;96497.75;114054;1198;29439;-83
2021/08/28 08:39:27;;;;;;;2.20;0.90;;;;;;;26.16;35.37;96495.83;113988;1206;28741;-82
2021/08/28 08:42:00;;;;;;;1.20;0.70;;;;;;;26.10;36.29;96494.18;113983;1206;29450;-82
2021/08/28 08:44:33;;;;;;;1.10;0.80;;;;;;;25.52;35.83;96492.90;113970;1209;26963;-82
2021/08/28 08:47:06;;;;;;;1.10;0.90;;;;;;;24.44;36.57;96495.16;114072;1202;26147;-82
2021/08/28 08:49:39;;;;;;;1.50;0.60;;;;;;;23.67;37.91;96497.52;114012;1202;25114;-83
2021/08/28 08:52:11;;;;;;;3.10;1.10;;;;;;;23.27;39.30;96493.29;113870;1209;44269;-82
2021/08/28 08:54:43;;;;;;;0.80;0.70;;;;;;;23.10;40.39;96491.30;114026;1209;25797;-82
2021/08/28 08:57:15;;;;;;;1.00;0.80;;;;;;;23.41;40.72;96492.58;113946;1209;28473;-82
2021/08/28 08:59:46;;;;;;;0.70;0.70;;;;;;;23.26;39.94;96485.77;114050;1203;27367;-83
2021/08/28 09:02:17;;;;;;;0.80;0.60;;;;;;;22.55;40.11;96489.25;114064;1199;29247;-82
2021/08/28 09:04:48;;;;;;;1.10;0.60;;;;;;;21.96;40.45;96493.03;114012;1203;28008;-83
2021/08/28 09:07:20;;;;;;;0.40;0.40;;;;;;;21.72;41.02;96492.77;114077;1209;30873;-82
2021/08/28 09:09:51;;;;;;;0.70;0.40;;;;;;;21.80;41.80;96495.70;113965;1206;35793;-82
2021/08/28 09:12:22;;;;;;;0.50;0.50;;;;;;;22.07;41.92;96497.20;113984;1205;28500;-81
2021/08/28 09:14:58;;;;;;;2.00;0.60;;;;;;;22.12;41.67;96496.03;113999;1206;32820;-83
2021/08/28 09:17:29;;;;;;;0.60;0.50;;;;;;;21.82;41.85;96495.83;113960;1209;28778;-83
2021/08/28 09:20:01;;;;;;;1.80;0.50;;;;;;;21.63;41.84;96493.96;113973;1202;29026;-82
2021/08/28 09:22:36;;;;;;;0.30;0.30;;;;;;;21.49;42.10;96493.34;114008;1205;30748;-83
2021/08/28 09:25:09;;;;;;;0.40;0.30;;;;;;;21.33;42.16;96489.97;113951;1205;77939;-82
2021/08/28 09:27:45;;;;;;;0.60;0.60;;;;;;;21.23;42.57;96493.58;113957;1202;28639;-82
2021/08/28 09:30:23;;;;;;;1.30;0.50;;;;;;;20.60;43.25;96492.45;114053;1210;26890;-83
2021/08/28 09:32:57;;;;;;;0.70;0.60;;;;;;;20.23;44.74;96490.38;113971;1205;46787;-82
2021/08/28 09:35:30;;;;;;;0.80;0.70;;;;;;;20.06;45.45;96491.22;114008;1205;26046;-82
2021/08/28 09:38:04;;;;;;;1.10;0.60;;;;;;;19.81;45.48;96493.73;113927;1206;28687;-82
2021/08/28 09:40:37;;;;;;;1.10;0.80;;;;;;;19.55;45.71;96494.34;114000;1206;28633;-82
2021/08/28 09:43:12;;;;;;;0.60;0.50;;;;;;;19.43;45.96;96495.58;113979;1205;29111;-83
2021/08/28 09:45:44;;;;;;;1.40;0.60;;;;;;;19.39;47.04;96498.20;113977;1202;27416;-82
2021/08/28 09:48:17;;;;;;;0.50;0.50;;;;;;;19.54;46.94;96497.08;114014;1210;30912;-82
2021/08/28 09:50:49;;;;;;;0.60;0.40;;;;;;;19.63;46.64;96491.66;114088;1206;27520;-82
2021/08/28 09:53:23;;;;;;;3.70;1.00;;;;;;;19.65;46.16;96493.63;113953;1202;31192;-82
2021/08/28 09:55:59;;;;;;;0.80;0.70;;;;;;;19.53;46.99;96490.58;113964;1205;36021;-82
2021/08/28 09:58:32;;;;;;;0.60;0.50;;;;;;;19.53;47.53;96494.35;113997;1209;29349;-82
2021/08/28 10:01:06;;;;;;;0.60;0.50;;;;;;;19.65;47.86;96492.19;113965;1205;29086;-82
2021/08/28 10:03:37;;;;;;;0.80;0.60;;;;;;;19.45;47.19;96495.08;114008;1205;34314;-83
2021/08/28 10:06:08;;;;;;;1.00;0.60;;;;;;;19.24;48.32;96497.51;113999;1209;29156;-82
2021/08/28 10:08:42;;;;;;;1.70;0.70;;;;;;;19.52;49.07;96498.70;113992;1203;30100;-82
2021/08/28 10:11:13;;;;;;;1.40;0.90;;;;;;;19.77;50.07;96489.67;113999;1206;29222;-82
2021/08/28 10:13:44;;;;;;;0.90;0.90;;;;;;;19.96;49.62;96491.23;113953;1205;62263;-82
2021/08/28 10:16:17;;;;;;;1.30;0.80;;;;;;;20.03;49.78;96483.83;114045;1204;28888;-82
2021/08/28 10:18:49;;;;;;;0.80;0.70;;;;;;;20.06;49.61;96487.59;114085;1205;28838;-83
2021/08/28 10:21:21;;;;;;;0.80;0.70;;;;;;;20.07;49.57;96486.24;113921;1199;45223;-80
2021/08/28 10:23:54;;;;;;;2.10;0.70;;;;;;;20.20;50.19;96483.68;114039;1205;25246;-82
2021/08/28 10:26:25;;;;;;;1.10;0.90;;;;;;;20.36;49.94;96484.66;113995;1203;36558;-82
2021/08/28 10:29:13;;;;;;;1.20;0.80;;;;;;;20.35;49.11;96483.08;113997;1206;26516;-84
2021/08/28 10:31:47;;;;;;;1.00;0.60;;;;;;;20.33;49.93;96487.35;113996;1206;28519;-83
2021/08/28 10:34:20;;;;;;;1.40;0.60;;;;;;;20.21;48.95;96485.46;114080;1205;27228;-82
2021/08/28 10:36:52;;;;;;;0.80;0.70;;;;;;;19.99;48.88;96481.40;114002;1206;28354;-82
2021/08/28 10:39:23;;;;;;;1.60;0.80;;;;;;;19.78;48.31;96481.87;113993;1205;28319;-82
2021/08/28 10:41:55;;;;;;;0.70;0.70;;;;;;;19.69;48.78;96486.76;113960;1208;24866;-82
2021/08/28 10:44:27;;;;;;;0.90;0.70;;;;;;;19.75;49.12;96489.80;113999;1199;39307;-81
2021/08/28 10:46:58;;;;;;;0.80;0.70;;;;;;;19.75;49.32;96489.86;114029;1205;27820;-82
2021/08/28 10:49:31;;;;;;;1.50;0.80;;;;;;;19.72;50.29;96492.09;113954;1209;34921;-83
2021/08/28 10:52:04;;;;;;;1.30;0.80;;;;;;;19.75;50.14;96491.72;113978;1203;50015;-83
2021/08/28 10:54:35;;;;;;;1.30;0.80;;;;;;;19.82;50.01;96489.98;113954;1209;37004;-83
2021/08/28 10:57:06;;;;;;;1.10;0.80;;;;;;;19.84;50.55;96490.05;113993;1202;28878;-82
2021/08/28 10:59:39;;;;;;;1.10;0.70;;;;;;;19.84;51.17;96491.83;113992;1206;26410;-83
2021/08/28 11:02:12;;;;;;;1.50;0.90;;;;;;;19.86;50.78;96490.36;113869;1204;28272;-82
2021/08/28 11:04:45;;;;;;;1.40;0.90;;;;;;;19.89;50.87;96489.48;113995;1204;25859;-82
2021/08/28 11:07:28;;;;;;;1.00;0.70;;;;;;;19.96;51.52;96484.78;114083;1205;28858;-82
2021/08/28 11:10:14;;;;;;;0.90;0.80;;;;;;;20.06;51.97;96491.73;113984;1206;28563;-82
2021/08/28 11:12:48;;;;;;;0.80;0.70;;;;;;;20.12;52.03;96495.59;113907;1205;32091;-82
2021/08/28 11:15:45;;;;;;;2.10;0.80;;;;;;;20.05;51.57;96493.63;114004;1202;28750;-82
2021/08/28 11:18:37;;;;;;;1.30;1.00;;;;;;;19.78;51.42;96493.03;114047;1202;28220;-83
2021/08/28 11:21:10;;;;;;;1.00;0.80;;;;;;;19.57;51.23;96492.33;113961;1202;35033;-82
2021/08/28 11:23:45;;;;;;;1.80;0.90;;;;;;;19.31;51.53;96487.52;113954;1200;28248;-82
2021/08/28 11:26:35;;;;;;;0.80;0.70;;;;;;;19.20;52.39;96488.10;114034;1209;26791;-83
2021/08/28 11:29:22;;;;;;;1.40;1.10;;;;;;;19.17;52.47;96486.64;113943;1205;35738;-82
2021/08/28 11:34:58;;;;;;;1.20;0.80;;;;;;;19.42;52.60;96495.14;112508;1220;544860;-82
2021/08/28 11:37:45;;;;;;;1.10;0.70;;;;;;;19.47;52.97;96498.90;113634;1209;31957;-82
2021/08/28 11:40:28;;;;;;;1.30;0.70;;;;;;;19.52;53.17;96503.08;113648;1207;29037;-82
2021/08/28 11:42:59;;;;;;;0.70;0.70;;;;;;;19.69;52.68;96502.45;113721;1213;31884;-82
2021/08/28 11:45:40;;;;;;;1.10;0.90;;;;;;;19.68;52.06;96504.77;113700;1206;30454;-85
2021/08/28 11:48:14;;;;;;;0.50;0.50;;;;;;;19.65;51.66;96505.07;113660;1207;28240;-85
2021/08/28 11:50:45;;;;;;;0.60;0.60;;;;;;;19.76;51.67;96499.64;113642;1206;31033;-85
2021/08/28 11:53:26;;;;;;;0.90;0.80;;;;;;;19.92;51.57;96498.73;113972;1210;36521;-85
2021/08/28 11:56:03;;;;;;;;;;;;;;;19.92;51.64;96493.64;113929;1207;29542;-85